BRM weather

Public forecast

Using degrees Celsius for public forecast. Weather courtesy of forecast.io.

Current aviation weather report (METAR) for Barquisimeto International Airport

Retrieved 2020/08/09 17:02 UTC (14 minutes ago):

SVBM 091702Z AUTO 11013KT NCD 22/21 Q1017

Aviation forecast (TAF) for Barquisimeto International Airport

Forecast is more than 12 hours old.

Retrieved 2020/08/08 12:28 UTC (1 day ago):

TAF SVBM 081120Z 0812/0912 09007KT 4000 BR SCT013 SCT070 TX31/0818Z TN22/0908Z BECMG 0814/0818 11010KT 7000 VCTSDZ FEW013CB BKN070